sensor_id;sensor_type;location;lat;lon;timestamp;P1;durP1;ratioP1;P2;durP2;ratioP2
31680;SDS011;18281;51.364;9.566;2023-04-24T00:02:24;1.33;;;0.70;;
31680;SDS011;18281;51.364;9.566;2023-04-24T00:04:50;2.40;;;0.50;;
31680;SDS011;18281;51.364;9.566;2023-04-24T00:07:16;5.32;;;0.75;;
31680;SDS011;18281;51.364;9.566;2023-04-24T00:09:45;2.55;;;0.75;;
31680;SDS011;18281;51.364;9.566;2023-04-24T00:12:10;1.17;;;0.50;;
31680;SDS011;18281;51.364;9.566;2023-04-24T00:14:36;1.95;;;0.52;;
31680;SDS011;18281;51.364;9.566;2023-04-24T00:17:01;1.23;;;0.45;;
31680;SDS011;18281;51.364;9.566;2023-04-24T00:19:27;0.73;;;0.52;;
31680;SDS011;18281;51.364;9.566;2023-04-24T00:21:53;2.53;;;0.55;;
31680;SDS011;18281;51.364;9.566;2023-04-24T00:24:20;3.55;;;0.65;;
31680;SDS011;18281;51.364;9.566;2023-04-24T00:26:45;1.10;;;0.60;;
31680;SDS011;18281;51.364;9.566;2023-04-24T00:29:11;1.45;;;0.55;;
31680;SDS011;18281;51.364;9.566;2023-04-24T00:31:36;1.30;;;0.60;;
31680;SDS011;18281;51.364;9.566;2023-04-24T00:34:02;0.40;;;0.40;;
31680;SDS011;18281;51.364;9.566;2023-04-24T00:36:28;2.70;;;0.70;;
31680;SDS011;18281;51.364;9.566;2023-04-24T00:38:54;0.50;;;0.50;;
31680;SDS011;18281;51.364;9.566;2023-04-24T00:41:20;1.40;;;0.65;;
31680;SDS011;18281;51.364;9.566;2023-04-24T00:43:46;0.52;;;0.52;;
31680;SDS011;18281;51.364;9.566;2023-04-24T00:46:12;0.43;;;0.43;;
31680;SDS011;18281;51.364;9.566;2023-04-24T00:48:38;1.67;;;0.50;;
31680;SDS011;18281;51.364;9.566;2023-04-24T00:51:04;2.50;;;0.73;;
31680;SDS011;18281;51.364;9.566;2023-04-24T00:53:30;1.17;;;0.65;;
31680;SDS011;18281;51.364;9.566;2023-04-24T00:55:55;0.85;;;0.80;;
31680;SDS011;18281;51.364;9.566;2023-04-24T00:58:22;1.77;;;1.00;;
31680;SDS011;18281;51.364;9.566;2023-04-24T01:00:49;1.05;;;0.70;;
31680;SDS011;18281;51.364;9.566;2023-04-24T01:03:19;5.07;;;0.88;;
31680;SDS011;18281;51.364;9.566;2023-04-24T01:05:46;1.45;;;0.70;;
31680;SDS011;18281;51.364;9.566;2023-04-24T01:08:13;0.80;;;0.63;;
31680;SDS011;18281;51.364;9.566;2023-04-24T01:10:39;1.15;;;0.50;;
31680;SDS011;18281;51.364;9.566;2023-04-24T01:13:06;1.63;;;0.80;;
31680;SDS011;18281;51.364;9.566;2023-04-24T01:15:33;2.15;;;0.50;;
31680;SDS011;18281;51.364;9.566;2023-04-24T01:17:59;2.88;;;0.80;;
31680;SDS011;18281;51.364;9.566;2023-04-24T01:20:25;2.33;;;0.70;;
31680;SDS011;18281;51.364;9.566;2023-04-24T01:22:51;2.38;;;0.50;;
31680;SDS011;18281;51.364;9.566;2023-04-24T01:25:17;0.73;;;0.55;;
31680;SDS011;18281;51.364;9.566;2023-04-24T01:27:43;7.13;;;2.25;;
31680;SDS011;18281;51.364;9.566;2023-04-24T01:30:09;1.15;;;0.60;;
31680;SDS011;18281;51.364;9.566;2023-04-24T01:32:35;1.33;;;0.50;;
31680;SDS011;18281;51.364;9.566;2023-04-24T01:35:01;3.38;;;0.70;;
31680;SDS011;18281;51.364;9.566;2023-04-24T01:37:27;2.85;;;0.70;;
31680;SDS011;18281;51.364;9.566;2023-04-24T01:39:53;1.73;;;0.60;;
31680;SDS011;18281;51.364;9.566;2023-04-24T01:42:18;0.82;;;0.40;;
31680;SDS011;18281;51.364;9.566;2023-04-24T01:44:44;1.65;;;0.68;;
31680;SDS011;18281;51.364;9.566;2023-04-24T01:47:10;2.47;;;0.60;;
31680;SDS011;18281;51.364;9.566;2023-04-24T01:49:37;0.63;;;0.40;;
31680;SDS011;18281;51.364;9.566;2023-04-24T01:52:03;2.72;;;0.63;;
31680;SDS011;18281;51.364;9.566;2023-04-24T01:54:28;3.33;;;0.75;;
31680;SDS011;18281;51.364;9.566;2023-04-24T01:56:54;1.05;;;0.47;;
31680;SDS011;18281;51.364;9.566;2023-04-24T01:59:19;1.00;;;0.40;;
31680;SDS011;18281;51.364;9.566;2023-04-24T02:01:45;1.10;;;0.60;;
31680;SDS011;18281;51.364;9.566;2023-04-24T02:04:11;1.10;;;0.60;;
31680;SDS011;18281;51.364;9.566;2023-04-24T02:06:36;2.35;;;0.50;;
31680;SDS011;18281;51.364;9.566;2023-04-24T02:09:02;1.17;;;0.50;;
31680;SDS011;18281;51.364;9.566;2023-04-24T02:11:28;0.30;;;0.30;;
31680;SDS011;18281;51.364;9.566;2023-04-24T02:13:53;3.05;;;0.63;;
31680;SDS011;18281;51.364;9.566;2023-04-24T02:16:19;1.23;;;0.50;;
31680;SDS011;18281;51.364;9.566;2023-04-24T02:18:44;0.88;;;0.52;;
31680;SDS011;18281;51.364;9.566;2023-04-24T02:21:10;1.42;;;0.50;;
31680;SDS011;18281;51.364;9.566;2023-04-24T02:23:35;1.65;;;0.57;;
31680;SDS011;18281;51.364;9.566;2023-04-24T02:26:00;2.35;;;0.70;;
31680;SDS011;18281;51.364;9.566;2023-04-24T02:28:26;0.50;;;0.50;;
31680;SDS011;18281;51.364;9.566;2023-04-24T02:30:51;0.50;;;0.50;;
31680;SDS011;18281;51.364;9.566;2023-04-24T02:33:17;0.77;;;0.50;;
31680;SDS011;18281;51.364;9.566;2023-04-24T02:35:42;1.55;;;0.52;;
31680;SDS011;18281;51.364;9.566;2023-04-24T02:38:08;3.47;;;0.60;;
31680;SDS011;18281;51.364;9.566;2023-04-24T02:40:33;0.88;;;0.60;;
31680;SDS011;18281;51.364;9.566;2023-04-24T02:42:58;1.50;;;0.65;;
31680;SDS011;18281;51.364;9.566;2023-04-24T02:45:23;3.78;;;0.80;;
31680;SDS011;18281;51.364;9.566;2023-04-24T02:47:49;0.60;;;0.50;;
31680;SDS011;18281;51.364;9.566;2023-04-24T02:50:14;1.75;;;0.70;;
31680;SDS011;18281;51.364;9.566;2023-04-24T02:52:40;1.45;;;0.70;;
31680;SDS011;18281;51.364;9.566;2023-04-24T02:55:05;0.93;;;0.60;;
31680;SDS011;18281;51.364;9.566;2023-04-24T02:57:32;0.85;;;0.70;;
31680;SDS011;18281;51.364;9.566;2023-04-24T02:59:58;3.17;;;0.70;;
31680;SDS011;18281;51.364;9.566;2023-04-24T03:02:23;1.08;;;0.50;;
31680;SDS011;18281;51.364;9.566;2023-04-24T03:04:48;0.65;;;0.65;;
31680;SDS011;18281;51.364;9.566;2023-04-24T03:07:14;2.20;;;0.70;;
31680;SDS011;18281;51.364;9.566;2023-04-24T03:09:39;1.73;;;0.70;;
31680;SDS011;18281;51.364;9.566;2023-04-24T03:12:05;3.60;;;0.60;;
31680;SDS011;18281;51.364;9.566;2023-04-24T03:14:31;0.85;;;0.80;;
31680;SDS011;18281;51.364;9.566;2023-04-24T03:16:56;1.33;;;0.70;;
31680;SDS011;18281;51.364;9.566;2023-04-24T03:19:22;1.40;;;0.80;;
31680;SDS011;18281;51.364;9.566;2023-04-24T03:21:47;0.95;;;0.50;;
31680;SDS011;18281;51.364;9.566;2023-04-24T03:24:13;0.73;;;0.70;;
31680;SDS011;18281;51.364;9.566;2023-04-24T03:26:38;0.85;;;0.47;;
31680;SDS011;18281;51.364;9.566;2023-04-24T03:29:04;1.67;;;0.70;;
31680;SDS011;18281;51.364;9.566;2023-04-24T03:31:29;0.80;;;0.60;;
31680;SDS011;18281;51.364;9.566;2023-04-24T03:33:55;0.85;;;0.70;;
31680;SDS011;18281;51.364;9.566;2023-04-24T03:36:20;0.98;;;0.68;;
31680;SDS011;18281;51.364;9.566;2023-04-24T03:38:45;1.48;;;0.70;;
31680;SDS011;18281;51.364;9.566;2023-04-24T03:41:11;1.67;;;0.60;;
31680;SDS011;18281;51.364;9.566;2023-04-24T03:43:36;0.60;;;0.60;;
31680;SDS011;18281;51.364;9.566;2023-04-24T03:46:03;1.23;;;0.65;;
31680;SDS011;18281;51.364;9.566;2023-04-24T03:48:29;1.88;;;0.73;;
31680;SDS011;18281;51.364;9.566;2023-04-24T03:50:54;1.45;;;0.60;;
31680;SDS011;18281;51.364;9.566;2023-04-24T03:53:20;1.05;;;0.60;;
31680;SDS011;18281;51.364;9.566;2023-04-24T03:55:45;2.45;;;0.70;;
31680;SDS011;18281;51.364;9.566;2023-04-24T03:58:11;1.13;;;0.80;;
31680;SDS011;18281;51.364;9.566;2023-04-24T04:00:36;2.03;;;0.75;;
31680;SDS011;18281;51.364;9.566;2023-04-24T04:03:02;1.58;;;0.80;;
31680;SDS011;18281;51.364;9.566;2023-04-24T04:05:28;0.95;;;0.75;;
31680;SDS011;18281;51.364;9.566;2023-04-24T04:07:54;2.55;;;1.10;;
31680;SDS011;18281;51.364;9.566;2023-04-24T04:10:20;1.00;;;0.70;;
31680;SDS011;18281;51.364;9.566;2023-04-24T04:12:46;1.70;;;0.70;;
31680;SDS011;18281;51.364;9.566;2023-04-24T04:15:11;1.33;;;0.50;;
31680;SDS011;18281;51.364;9.566;2023-04-24T04:17:38;1.17;;;0.77;;
31680;SDS011;18281;51.364;9.566;2023-04-24T04:20:04;2.10;;;0.70;;
31680;SDS011;18281;51.364;9.566;2023-04-24T04:22:34;0.93;;;0.77;;
31680;SDS011;18281;51.364;9.566;2023-04-24T04:24:59;0.80;;;0.65;;
31680;SDS011;18281;51.364;9.566;2023-04-24T04:27:26;0.50;;;0.50;;
31680;SDS011;18281;51.364;9.566;2023-04-24T04:29:53;1.10;;;0.40;;
31680;SDS011;18281;51.364;9.566;2023-04-24T04:32:18;0.80;;;0.70;;
31680;SDS011;18281;51.364;9.566;2023-04-24T04:34:44;0.60;;;0.55;;
31680;SDS011;18281;51.364;9.566;2023-04-24T04:37:10;1.08;;;0.45;;
31680;SDS011;18281;51.364;9.566;2023-04-24T04:39:37;0.80;;;0.65;;
31680;SDS011;18281;51.364;9.566;2023-04-24T04:42:02;1.98;;;0.70;;
31680;SDS011;18281;51.364;9.566;2023-04-24T04:44:28;2.72;;;1.23;;
31680;SDS011;18281;51.364;9.566;2023-04-24T04:46:55;1.20;;;0.68;;
31680;SDS011;18281;51.364;9.566;2023-04-24T04:49:21;1.13;;;0.70;;
31680;SDS011;18281;51.364;9.566;2023-04-24T04:51:48;1.27;;;0.60;;
31680;SDS011;18281;51.364;9.566;2023-04-24T04:54:14;1.38;;;0.82;;
31680;SDS011;18281;51.364;9.566;2023-04-24T04:56:40;0.63;;;0.60;;
31680;SDS011;18281;51.364;9.566;2023-04-24T04:59:06;2.88;;;1.00;;
31680;SDS011;18281;51.364;9.566;2023-04-24T05:01:31;0.75;;;0.73;;
31680;SDS011;18281;51.364;9.566;2023-04-24T05:03:57;2.35;;;0.70;;
31680;SDS011;18281;51.364;9.566;2023-04-24T05:06:22;1.05;;;0.60;;
31680;SDS011;18281;51.364;9.566;2023-04-24T05:08:47;1.38;;;0.60;;
31680;SDS011;18281;51.364;9.566;2023-04-24T05:11:13;4.05;;;0.88;;
31680;SDS011;18281;51.364;9.566;2023-04-24T05:13:39;1.33;;;0.80;;
31680;SDS011;18281;51.364;9.566;2023-04-24T05:16:05;1.88;;;0.77;;
31680;SDS011;18281;51.364;9.566;2023-04-24T05:18:31;0.70;;;0.70;;
31680;SDS011;18281;51.364;9.566;2023-04-24T05:20:56;2.35;;;0.70;;
31680;SDS011;18281;51.364;9.566;2023-04-24T05:23:21;0.90;;;0.68;;
31680;SDS011;18281;51.364;9.566;2023-04-24T05:25:46;2.20;;;1.05;;
31680;SDS011;18281;51.364;9.566;2023-04-24T05:28:12;1.02;;;0.80;;
31680;SDS011;18281;51.364;9.566;2023-04-24T05:30:37;1.63;;;0.98;;
31680;SDS011;18281;51.364;9.566;2023-04-24T05:33:02;2.80;;;1.10;;
31680;SDS011;18281;51.364;9.566;2023-04-24T05:35:28;1.75;;;1.20;;
31680;SDS011;18281;51.364;9.566;2023-04-24T05:37:56;4.80;;;1.55;;
31680;SDS011;18281;51.364;9.566;2023-04-24T05:40:22;1.80;;;0.90;;
31680;SDS011;18281;51.364;9.566;2023-04-24T05:42:47;2.17;;;1.00;;
31680;SDS011;18281;51.364;9.566;2023-04-24T05:45:12;3.65;;;1.20;;
31680;SDS011;18281;51.364;9.566;2023-04-24T05:47:41;2.13;;;1.00;;
31680;SDS011;18281;51.364;9.566;2023-04-24T05:50:08;0.95;;;0.95;;
31680;SDS011;18281;51.364;9.566;2023-04-24T05:52:35;0.57;;;0.57;;
31680;SDS011;18281;51.364;9.566;2023-04-24T05:55:01;0.88;;;0.75;;
31680;SDS011;18281;51.364;9.566;2023-04-24T05:57:26;1.33;;;0.77;;
31680;SDS011;18281;51.364;9.566;2023-04-24T05:59:52;1.27;;;0.90;;
31680;SDS011;18281;51.364;9.566;2023-04-24T06:02:17;0.80;;;0.70;;
31680;SDS011;18281;51.364;9.566;2023-04-24T06:04:43;0.50;;;0.40;;
31680;SDS011;18281;51.364;9.566;2023-04-24T06:07:09;0.30;;;0.30;;
31680;SDS011;18281;51.364;9.566;2023-04-24T06:09:35;2.17;;;0.80;;
31680;SDS011;18281;51.364;9.566;2023-04-24T06:12:01;2.22;;;0.43;;
31680;SDS011;18281;51.364;9.566;2023-04-24T06:14:27;2.38;;;0.60;;
31680;SDS011;18281;51.364;9.566;2023-04-24T06:16:52;0.63;;;0.60;;
31680;SDS011;18281;51.364;9.566;2023-04-24T06:19:18;1.35;;;0.60;;
31680;SDS011;18281;51.364;9.566;2023-04-24T06:21:43;1.75;;;0.70;;
31680;SDS011;18281;51.364;9.566;2023-04-24T06:24:08;1.08;;;0.70;;
31680;SDS011;18281;51.364;9.566;2023-04-24T06:26:34;1.05;;;0.90;;
31680;SDS011;18281;51.364;9.566;2023-04-24T06:28:59;0.85;;;0.68;;
31680;SDS011;18281;51.364;9.566;2023-04-24T06:31:25;1.52;;;0.70;;
31680;SDS011;18281;51.364;9.566;2023-04-24T06:33:50;1.23;;;0.85;;
31680;SDS011;18281;51.364;9.566;2023-04-24T06:36:16;1.23;;;1.05;;
31680;SDS011;18281;51.364;9.566;2023-04-24T06:38:42;0.85;;;0.85;;
31680;SDS011;18281;51.364;9.566;2023-04-24T06:41:07;1.20;;;1.02;;
31680;SDS011;18281;51.364;9.566;2023-04-24T06:43:33;2.97;;;1.30;;
31680;SDS011;18281;51.364;9.566;2023-04-24T06:45:59;1.23;;;1.10;;
31680;SDS011;18281;51.364;9.566;2023-04-24T06:48:25;3.80;;;1.10;;
31680;SDS011;18281;51.364;9.566;2023-04-24T06:50:51;1.98;;;1.08;;
31680;SDS011;18281;51.364;9.566;2023-04-24T06:53:18;2.30;;;1.00;;
31680;SDS011;18281;51.364;9.566;2023-04-24T06:55:43;1.88;;;0.90;;
31680;SDS011;18281;51.364;9.566;2023-04-24T06:58:11;1.67;;;1.25;;
31680;SDS011;18281;51.364;9.566;2023-04-24T07:00:36;1.40;;;1.30;;
31680;SDS011;18281;51.364;9.566;2023-04-24T07:03:02;5.25;;;1.23;;
31680;SDS011;18281;51.364;9.566;2023-04-24T07:05:30;2.83;;;1.65;;
31680;SDS011;18281;51.364;9.566;2023-04-24T07:07:55;1.73;;;1.63;;
31680;SDS011;18281;51.364;9.566;2023-04-24T07:10:23;1.27;;;1.17;;
31680;SDS011;18281;51.364;9.566;2023-04-24T07:12:49;1.77;;;1.35;;
31680;SDS011;18281;51.364;9.566;2023-04-24T07:15:14;1.30;;;1.20;;
31680;SDS011;18281;51.364;9.566;2023-04-24T07:17:40;1.75;;;1.48;;
31680;SDS011;18281;51.364;9.566;2023-04-24T07:20:08;3.70;;;1.60;;
31680;SDS011;18281;51.364;9.566;2023-04-24T07:22:35;1.55;;;1.45;;
31680;SDS011;18281;51.364;9.566;2023-04-24T07:25:00;1.63;;;1.33;;
31680;SDS011;18281;51.364;9.566;2023-04-24T07:27:26;1.55;;;1.08;;
31680;SDS011;18281;51.364;9.566;2023-04-24T07:29:52;1.40;;;1.30;;
31680;SDS011;18281;51.364;9.566;2023-04-24T07:32:17;0.90;;;0.90;;
31680;SDS011;18281;51.364;9.566;2023-04-24T07:34:42;1.50;;;1.40;;
31680;SDS011;18281;51.364;9.566;2023-04-24T07:37:07;1.65;;;1.30;;
31680;SDS011;18281;51.364;9.566;2023-04-24T07:39:36;1.98;;;1.52;;
31680;SDS011;18281;51.364;9.566;2023-04-24T07:42:01;1.55;;;1.15;;
31680;SDS011;18281;51.364;9.566;2023-04-24T07:44:27;1.50;;;1.40;;
31680;SDS011;18281;51.364;9.566;2023-04-24T07:46:52;1.38;;;1.08;;
31680;SDS011;18281;51.364;9.566;2023-04-24T07:49:18;3.67;;;1.85;;
31680;SDS011;18281;51.364;9.566;2023-04-24T07:51:44;1.00;;;1.00;;
31680;SDS011;18281;51.364;9.566;2023-04-24T07:54:10;3.13;;;0.90;;
31680;SDS011;18281;51.364;9.566;2023-04-24T07:56:35;1.05;;;1.05;;
31680;SDS011;18281;51.364;9.566;2023-04-24T07:59:03;1.95;;;1.10;;
31680;SDS011;18281;51.364;9.566;2023-04-24T08:01:29;1.80;;;1.15;;
31680;SDS011;18281;51.364;9.566;2023-04-24T08:03:54;2.97;;;1.30;;
31680;SDS011;18281;51.364;9.566;2023-04-24T08:06:20;2.28;;;1.48;;
31680;SDS011;18281;51.364;9.566;2023-04-24T08:08:45;2.72;;;1.33;;
31680;SDS011;18281;51.364;9.566;2023-04-24T08:11:11;7.07;;;1.48;;
31680;SDS011;18281;51.364;9.566;2023-04-24T08:13:36;7.93;;;1.20;;
31680;SDS011;18281;51.364;9.566;2023-04-24T08:16:01;1.00;;;0.90;;
31680;SDS011;18281;51.364;9.566;2023-04-24T08:18:27;5.63;;;1.42;;
31680;SDS011;18281;51.364;9.566;2023-04-24T08:20:52;2.67;;;0.80;;
31680;SDS011;18281;51.364;9.566;2023-04-24T08:23:17;2.75;;;0.90;;
31680;SDS011;18281;51.364;9.566;2023-04-24T08:25:43;4.43;;;1.15;;
31680;SDS011;18281;51.364;9.566;2023-04-24T08:28:08;1.15;;;1.00;;
31680;SDS011;18281;51.364;9.566;2023-04-24T08:30:34;1.13;;;1.00;;
31680;SDS011;18281;51.364;9.566;2023-04-24T08:32:59;2.85;;;1.00;;
31680;SDS011;18281;51.364;9.566;2023-04-24T08:35:25;1.55;;;1.23;;
31680;SDS011;18281;51.364;9.566;2023-04-24T08:37:51;1.95;;;0.95;;
31680;SDS011;18281;51.364;9.566;2023-04-24T08:40:17;1.00;;;0.90;;
31680;SDS011;18281;51.364;9.566;2023-04-24T08:42:44;1.35;;;1.25;;
31680;SDS011;18281;51.364;9.566;2023-04-24T08:45:11;1.15;;;1.02;;
31680;SDS011;18281;51.364;9.566;2023-04-24T08:47:38;1.20;;;1.10;;
31680;SDS011;18281;51.364;9.566;2023-04-24T08:50:04;1.25;;;1.10;;
31680;SDS011;18281;51.364;9.566;2023-04-24T08:52:32;4.55;;;1.08;;
31680;SDS011;18281;51.364;9.566;2023-04-24T08:54:58;2.17;;;1.30;;
31680;SDS011;18281;51.364;9.566;2023-04-24T08:57:24;1.00;;;0.90;;
31680;SDS011;18281;51.364;9.566;2023-04-24T08:59:51;2.97;;;1.20;;
31680;SDS011;18281;51.364;9.566;2023-04-24T09:02:17;1.13;;;1.02;;
31680;SDS011;18281;51.364;9.566;2023-04-24T09:04:43;1.55;;;0.75;;
31680;SDS011;18281;51.364;9.566;2023-04-24T09:07:09;1.45;;;1.02;;
31680;SDS011;18281;51.364;9.566;2023-04-24T09:09:37;1.40;;;1.30;;
31680;SDS011;18281;51.364;9.566;2023-04-24T09:12:03;2.13;;;1.30;;
31680;SDS011;18281;51.364;9.566;2023-04-24T09:14:29;1.25;;;1.15;;
31680;SDS011;18281;51.364;9.566;2023-04-24T09:16:56;2.38;;;1.40;;
31680;SDS011;18281;51.364;9.566;2023-04-24T09:19:22;1.45;;;1.30;;
31680;SDS011;18281;51.364;9.566;2023-04-24T09:21:47;1.30;;;1.20;;
31680;SDS011;18281;51.364;9.566;2023-04-24T09:24:17;3.22;;;1.08;;
31680;SDS011;18281;51.364;9.566;2023-04-24T09:26:45;1.58;;;1.48;;
31680;SDS011;18281;51.364;9.566;2023-04-24T09:29:14;1.35;;;1.10;;
31680;SDS011;18281;51.364;9.566;2023-04-24T09:31:41;3.47;;;2.25;;
31680;SDS011;18281;51.364;9.566;2023-04-24T09:34:07;2.88;;;1.98;;
31680;SDS011;18281;51.364;9.566;2023-04-24T09:36:36;4.25;;;2.45;;
31680;SDS011;18281;51.364;9.566;2023-04-24T09:39:04;4.40;;;3.40;;
31680;SDS011;18281;51.364;9.566;2023-04-24T09:41:31;7.28;;;3.20;;
31680;SDS011;18281;51.364;9.566;2023-04-24T09:43:58;4.13;;;2.65;;
31680;SDS011;18281;51.364;9.566;2023-04-24T09:46:36;3.10;;;2.00;;
31680;SDS011;18281;51.364;9.566;2023-04-24T09:49:14;2.47;;;1.80;;
31680;SDS011;18281;51.364;9.566;2023-04-24T09:51:41;1.60;;;1.48;;
31680;SDS011;18281;51.364;9.566;2023-04-24T09:54:17;2.60;;;1.80;;
31680;SDS011;18281;51.364;9.566;2023-04-24T09:56:46;3.05;;;1.40;;
31680;SDS011;18281;51.364;9.566;2023-04-24T09:59:15;2.20;;;1.33;;
31680;SDS011;18281;51.364;9.566;2023-04-24T10:01:45;5.65;;;1.55;;
31680;SDS011;18281;51.364;9.566;2023-04-24T10:06:52;1.40;;;1.20;;
31680;SDS011;18281;51.364;9.566;2023-04-24T10:09:20;3.05;;;1.33;;
31680;SDS011;18281;51.364;9.566;2023-04-24T10:11:48;1.23;;;1.10;;
31680;SDS011;18281;51.364;9.566;2023-04-24T10:14:17;1.38;;;1.17;;
31680;SDS011;18281;51.364;9.566;2023-04-24T10:16:45;2.00;;;1.35;;
31680;SDS011;18281;51.364;9.566;2023-04-24T10:19:14;1.23;;;1.15;;
31680;SDS011;18281;51.364;9.566;2023-04-24T10:21:41;1.67;;;1.15;;
31680;SDS011;18281;51.364;9.566;2023-04-24T10:24:11;2.35;;;1.30;;
31680;SDS011;18281;51.364;9.566;2023-04-24T10:26:40;1.40;;;1.27;;
31680;SDS011;18281;51.364;9.566;2023-04-24T10:29:06;2.05;;;1.00;;
31680;SDS011;18281;51.364;9.566;2023-04-24T10:31:37;3.80;;;1.10;;
31680;SDS011;18281;51.364;9.566;2023-04-24T10:34:03;3.50;;;0.93;;
31680;SDS011;18281;51.364;9.566;2023-04-24T10:36:30;1.35;;;1.02;;
31680;SDS011;18281;51.364;9.566;2023-04-24T10:38:57;0.95;;;0.82;;
31680;SDS011;18281;51.364;9.566;2023-04-24T10:41:25;2.35;;;1.08;;
31680;SDS011;18281;51.364;9.566;2023-04-24T10:44:10;1.13;;;1.13;;
31680;SDS011;18281;51.364;9.566;2023-04-24T10:46:37;0.98;;;0.90;;
31680;SDS011;18281;51.364;9.566;2023-04-24T10:49:04;3.00;;;1.23;;
31680;SDS011;18281;51.364;9.566;2023-04-24T10:51:47;3.38;;;1.35;;
31680;SDS011;18281;51.364;9.566;2023-04-24T10:54:23;1.00;;;1.00;;
31680;SDS011;18281;51.364;9.566;2023-04-24T10:56:50;3.45;;;1.13;;
31680;SDS011;18281;51.364;9.566;2023-04-24T10:59:34;0.93;;;0.90;;
31680;SDS011;18281;51.364;9.566;2023-04-24T11:02:02;0.93;;;0.90;;
31680;SDS011;18281;51.364;9.566;2023-04-24T11:04:31;0.60;;;0.60;;
31680;SDS011;18281;51.364;9.566;2023-04-24T11:06:57;3.60;;;0.68;;
31680;SDS011;18281;51.364;9.566;2023-04-24T11:09:26;1.00;;;1.00;;
31680;SDS011;18281;51.364;9.566;2023-04-24T11:11:53;1.77;;;0.80;;
31680;SDS011;18281;51.364;9.566;2023-04-24T11:14:28;0.75;;;0.75;;
31680;SDS011;18281;51.364;9.566;2023-04-24T11:16:54;1.42;;;0.98;;
31680;SDS011;18281;51.364;9.566;2023-04-24T11:19:25;1.40;;;0.95;;
31680;SDS011;18281;51.364;9.566;2023-04-24T11:22:00;1.23;;;0.90;;
31680;SDS011;18281;51.364;9.566;2023-04-24T11:29:48;1.15;;;1.02;;
31680;SDS011;18281;51.364;9.566;2023-04-24T11:32:19;3.47;;;1.00;;
31680;SDS011;18281;51.364;9.566;2023-04-24T11:35:15;1.50;;;1.30;;
31680;SDS011;18281;51.364;9.566;2023-04-24T11:37:47;1.58;;;0.47;;
31680;SDS011;18281;51.364;9.566;2023-04-24T11:40:15;0.38;;;0.38;;
31680;SDS011;18281;51.364;9.566;2023-04-24T11:42:52;0.20;;;0.20;;
31680;SDS011;18281;51.364;9.566;2023-04-24T11:45:29;0.40;;;0.20;;
31680;SDS011;18281;51.364;9.566;2023-04-24T11:47:56;0.30;;;0.30;;
31680;SDS011;18281;51.364;9.566;2023-04-24T11:50:22;0.15;;;0.08;;
31680;SDS011;18281;51.364;9.566;2023-04-24T11:52:50;0.17;;;0.13;;
31680;SDS011;18281;51.364;9.566;2023-04-24T11:57:43;0.10;;;0.10;;
31680;SDS011;18281;51.364;9.566;2023-04-24T12:00:14;0.10;;;0.10;;
31680;SDS011;18281;51.364;9.566;2023-04-24T12:02:50;0.10;;;0.10;;
31680;SDS011;18281;51.364;9.566;2023-04-24T12:05:23;0.20;;;0.20;;
31680;SDS011;18281;51.364;9.566;2023-04-24T12:07:50;1.13;;;0.10;;
31680;SDS011;18281;51.364;9.566;2023-04-24T12:10:21;0.20;;;0.10;;
31680;SDS011;18281;51.364;9.566;2023-04-24T12:12:47;0.00;;;0.00;;
31680;SDS011;18281;51.364;9.566;2023-04-24T12:15:15;0.80;;;0.10;;
31680;SDS011;18281;51.364;9.566;2023-04-24T12:17:41;0.20;;;0.20;;
31680;SDS011;18281;51.364;9.566;2023-04-24T12:20:08;0.52;;;0.50;;
31680;SDS011;18281;51.364;9.566;2023-04-24T12:22:53;2.60;;;1.58;;
31680;SDS011;18281;51.364;9.566;2023-04-24T12:25:20;0.65;;;0.30;;
31680;SDS011;18281;51.364;9.566;2023-04-24T12:30:27;0.10;;;0.10;;
31680;SDS011;18281;51.364;9.566;2023-04-24T12:32:54;0.22;;;0.15;;
31680;SDS011;18281;51.364;9.566;2023-04-24T12:35:23;0.40;;;0.30;;
31680;SDS011;18281;51.364;9.566;2023-04-24T12:37:51;2.25;;;0.40;;
31680;SDS011;18281;51.364;9.566;2023-04-24T12:40:17;0.32;;;0.25;;
31680;SDS011;18281;51.364;9.566;2023-04-24T12:42:44;0.30;;;0.30;;
31680;SDS011;18281;51.364;9.566;2023-04-24T12:45:14;0.20;;;0.20;;
31680;SDS011;18281;51.364;9.566;2023-04-24T12:47:41;0.20;;;0.20;;
31680;SDS011;18281;51.364;9.566;2023-04-24T12:50:08;0.30;;;0.30;;
31680;SDS011;18281;51.364;9.566;2023-04-24T12:52:35;0.10;;;0.10;;
31680;SDS011;18281;51.364;9.566;2023-04-24T12:55:01;1.55;;;0.10;;
31680;SDS011;18281;51.364;9.566;2023-04-24T12:57:28;0.20;;;0.10;;
31680;SDS011;18281;51.364;9.566;2023-04-24T12:59:56;0.00;;;0.00;;
31680;SDS011;18281;51.364;9.566;2023-04-24T13:02:23;0.03;;;0.03;;
31680;SDS011;18281;51.364;9.566;2023-04-24T13:04:49;0.17;;;0.00;;
31680;SDS011;18281;51.364;9.566;2023-04-24T13:07:15;0.10;;;0.10;;
31680;SDS011;18281;51.364;9.566;2023-04-24T13:09:41;0.10;;;0.10;;
31680;SDS011;18281;51.364;9.566;2023-04-24T13:12:07;0.00;;;0.00;;
31680;SDS011;18281;51.364;9.566;2023-04-24T13:14:33;0.00;;;0.00;;
31680;SDS011;18281;51.364;9.566;2023-04-24T13:16:59;0.13;;;0.10;;
31680;SDS011;18281;51.364;9.566;2023-04-24T13:19:25;0.20;;;0.10;;
31680;SDS011;18281;51.364;9.566;2023-04-24T13:21:51;0.10;;;0.10;;
31680;SDS011;18281;51.364;9.566;2023-04-24T13:24:17;0.85;;;0.20;;
31680;SDS011;18281;51.364;9.566;2023-04-24T13:26:42;0.20;;;0.20;;
31680;SDS011;18281;51.364;9.566;2023-04-24T13:29:08;0.10;;;0.10;;
31680;SDS011;18281;51.364;9.566;2023-04-24T13:31:34;0.73;;;0.20;;
31680;SDS011;18281;51.364;9.566;2023-04-24T13:33:59;2.10;;;0.10;;
31680;SDS011;18281;51.364;9.566;2023-04-24T13:36:25;0.20;;;0.20;;
31680;SDS011;18281;51.364;9.566;2023-04-24T13:38:51;0.20;;;0.20;;
31680;SDS011;18281;51.364;9.566;2023-04-24T13:41:16;1.27;;;0.20;;
31680;SDS011;18281;51.364;9.566;2023-04-24T13:43:41;0.43;;;0.10;;
31680;SDS011;18281;51.364;9.566;2023-04-24T13:46:07;9.55;;;6.18;;
31680;SDS011;18281;51.364;9.566;2023-04-24T13:48:33;32.22;;;18.95;;
31680;SDS011;18281;51.364;9.566;2023-04-24T13:50:59;16.42;;;9.93;;
31680;SDS011;18281;51.364;9.566;2023-04-24T13:53:24;12.90;;;7.40;;
31680;SDS011;18281;51.364;9.566;2023-04-24T13:55:51;11.93;;;6.63;;
31680;SDS011;18281;51.364;9.566;2023-04-24T13:58:16;5.85;;;3.55;;
31680;SDS011;18281;51.364;9.566;2023-04-24T14:00:42;5.22;;;3.40;;
31680;SDS011;18281;51.364;9.566;2023-04-24T14:03:07;5.28;;;3.33;;
31680;SDS011;18281;51.364;9.566;2023-04-24T14:05:32;4.00;;;2.20;;
31680;SDS011;18281;51.364;9.566;2023-04-24T14:07:58;2.28;;;1.70;;
31680;SDS011;18281;51.364;9.566;2023-04-24T14:10:24;2.13;;;1.52;;
31680;SDS011;18281;51.364;9.566;2023-04-24T14:12:52;1.67;;;0.90;;
31680;SDS011;18281;51.364;9.566;2023-04-24T14:15:18;1.58;;;0.50;;
31680;SDS011;18281;51.364;9.566;2023-04-24T14:17:43;1.70;;;0.90;;
31680;SDS011;18281;51.364;9.566;2023-04-24T14:20:09;2.17;;;1.38;;
31680;SDS011;18281;51.364;9.566;2023-04-24T14:22:34;1.55;;;1.05;;
31680;SDS011;18281;51.364;9.566;2023-04-24T14:25:00;0.80;;;0.52;;
31680;SDS011;18281;51.364;9.566;2023-04-24T14:27:25;1.63;;;1.08;;
31680;SDS011;18281;51.364;9.566;2023-04-24T14:29:51;1.65;;;1.00;;
31680;SDS011;18281;51.364;9.566;2023-04-24T14:32:17;1.85;;;0.90;;
31680;SDS011;18281;51.364;9.566;2023-04-24T14:34:43;1.35;;;1.20;;
31680;SDS011;18281;51.364;9.566;2023-04-24T14:37:08;1.42;;;1.08;;
31680;SDS011;18281;51.364;9.566;2023-04-24T14:39:33;0.80;;;0.70;;
31680;SDS011;18281;51.364;9.566;2023-04-24T14:41:59;1.05;;;0.73;;
31680;SDS011;18281;51.364;9.566;2023-04-24T14:44:26;0.60;;;0.60;;
31680;SDS011;18281;51.364;9.566;2023-04-24T14:46:51;1.00;;;0.80;;
31680;SDS011;18281;51.364;9.566;2023-04-24T14:49:16;0.70;;;0.70;;
31680;SDS011;18281;51.364;9.566;2023-04-24T14:51:42;0.90;;;0.73;;
31680;SDS011;18281;51.364;9.566;2023-04-24T14:54:07;1.05;;;0.80;;
31680;SDS011;18281;51.364;9.566;2023-04-24T14:56:33;1.20;;;0.90;;
31680;SDS011;18281;51.364;9.566;2023-04-24T14:58:58;0.80;;;0.80;;